Time;durP1;ratioP1;P1;durP2;ratioP2;P2;SDS_P1;SDS_P2;PMS_P1;PMS_P2;Temp;Humidity;BMP_temperature;BMP_pressure;BME280_temperature;BME280_humidity;BME280_pressure;Samples;Min_cycle;Max_cycle;Signal;HPM_P1;HPM_P2
2021/06/23 00:00:18;;;;;;;23.10;6.65;;;;;;;23.56;65.70;94625.69;2975492;39;20109;-81
2021/06/23 00:02:19;;;;;;;31.27;7.88;;;;;;;23.54;66.04;94617.09;2972797;40;20060;-84
2021/06/23 00:04:21;;;;;;;20.58;6.07;;;;;;;23.49;66.02;94620.50;2974223;39;20052;-81
2021/06/23 00:06:23;;;;;;;23.17;6.55;;;;;;;23.52;65.99;94626.16;2970028;40;20060;-80
2021/06/23 00:08:24;;;;;;;20.33;6.13;;;;;;;23.48;66.03;94633.03;2975502;39;20056;-81
2021/06/23 00:10:26;;;;;;;22.90;6.85;;;;;;;23.55;65.62;94634.75;2974384;39;20565;-81
2021/06/23 00:12:30;;;;;;;20.67;6.78;;;;;;;23.63;65.35;94643.19;2973170;39;20063;-84
2021/06/23 00:14:31;;;;;;;21.35;7.60;;;;;;;23.68;65.50;94642.44;2976172;39;20417;-82
2021/06/23 00:16:33;;;;;;;22.40;6.75;;;;;;;23.59;65.74;94643.91;2975584;39;20132;-82
2021/06/23 00:18:35;;;;;;;17.85;6.63;;;;;;;23.67;65.26;94655.00;2974049;39;20278;-81
2021/06/23 00:20:39;;;;;;;15.73;6.22;;;;;;;23.76;65.00;94657.31;2971553;39;20315;-81
2021/06/23 00:22:40;;;;;;;23.95;7.57;;;;;;;23.80;64.19;94647.78;2972157;39;20056;-82
2021/06/23 00:24:42;;;;;;;21.85;6.43;;;;;;;23.86;63.40;94654.81;2971685;39;20301;-82
2021/06/23 00:26:44;;;;;;;17.52;5.82;;;;;;;23.93;63.00;94644.75;2974544;40;20082;-81
2021/06/23 00:28:47;;;;;;;19.40;6.32;;;;;;;23.96;62.84;94646.13;2973940;40;20170;-82
2021/06/23 00:30:49;;;;;;;21.27;6.47;;;;;;;24.01;62.40;94649.72;2970212;40;20092;-81
2021/06/23 00:32:52;;;;;;;15.15;5.75;;;;;;;24.03;62.14;94650.28;2970454;39;20380;-80
2021/06/23 00:34:54;;;;;;;24.08;7.43;;;;;;;23.99;62.78;94643.78;2973677;39;20103;-81
2021/06/23 00:36:56;;;;;;;20.52;5.70;;;;;;;23.96;62.72;94649.63;2969355;39;20091;-81
2021/06/23 00:38:58;;;;;;;21.27;5.57;;;;;;;23.95;62.93;94648.00;2973404;39;20161;-81
2021/06/23 00:41:00;;;;;;;25.55;7.80;;;;;;;23.96;63.15;94646.13;2973572;39;20075;-82
2021/06/23 00:43:03;;;;;;;19.48;6.55;;;;;;;23.99;63.02;94638.44;2963568;40;20474;-79
2021/06/23 00:45:07;;;;;;;24.45;6.55;;;;;;;24.03;63.12;94644.13;2974133;40;20048;-83
2021/06/23 00:47:09;;;;;;;19.58;6.82;;;;;;;24.06;62.67;94636.41;2971031;39;20044;-81
2021/06/23 00:49:11;;;;;;;17.73;6.28;;;;;;;24.09;62.72;94637.78;2975172;39;20060;-82
2021/06/23 00:51:14;;;;;;;24.17;6.15;;;;;;;24.09;62.69;94641.28;2974939;39;20128;-81
2021/06/23 00:53:16;;;;;;;21.52;6.20;;;;;;;24.09;62.79;94635.94;2967094;40;20432;-82
2021/06/23 00:55:21;;;;;;;19.38;5.70;;;;;;;24.09;62.98;94630.56;2976262;39;20072;-81
2021/06/23 00:57:23;;;;;;;11.63;5.32;;;;;;;24.08;62.85;94634.28;2977653;40;20399;-80
2021/06/23 00:59:25;;;;;;;22.35;6.00;;;;;;;24.04;63.23;94635.84;2971416;39;20059;-82
2021/06/23 01:01:31;;;;;;;24.13;5.90;;;;;;;24.00;63.01;94633.91;2975639;40;20662;-80
2021/06/23 01:03:33;;;;;;;21.95;6.18;;;;;;;23.97;63.17;94632.53;2974231;39;20048;-84
2021/06/23 01:05:36;;;;;;;19.10;5.78;;;;;;;23.96;63.26;94628.22;2966716;39;20060;-80
2021/06/23 01:07:37;;;;;;;22.33;6.63;;;;;;;23.97;63.04;94629.84;2973005;40;20050;-83
2021/06/23 01:09:39;;;;;;;19.40;6.43;;;;;;;23.98;63.12;94626.09;2969662;39;20056;-82
2021/06/23 01:11:57;;;;;;;18.42;6.45;;;;;;;24.01;63.36;94627.50;2975678;39;20064;-81
2021/06/23 01:14:02;;;;;;;19.20;6.80;;;;;;;24.01;63.07;94624.81;2974823;39;20468;-81
2021/06/23 01:16:06;;;;;;;21.05;6.57;;;;;;;24.01;62.76;94620.28;2974125;39;20060;-81
2021/06/23 01:18:09;;;;;;;25.90;6.65;;;;;;;24.01;62.36;94625.63;2975547;39;20122;-80
2021/06/23 01:20:12;;;;;;;24.85;7.53;;;;;;;24.01;62.47;94616.81;2971254;40;20440;-81
2021/06/23 01:22:16;;;;;;;22.98;5.65;;;;;;;23.99;62.50;94621.59;2976745;39;20067;-82
2021/06/23 01:24:18;;;;;;;20.98;6.15;;;;;;;23.94;62.54;94614.28;2975357;40;20103;-80
2021/06/23 01:26:20;;;;;;;20.20;7.05;;;;;;;23.97;62.67;94607.63;2980090;39;20051;-80
2021/06/23 01:28:22;;;;;;;25.92;6.53;;;;;;;23.96;62.69;94608.69;2976253;39;20345;-82
2021/06/23 01:30:24;;;;;;;19.30;7.35;;;;;;;23.96;62.54;94614.84;2975342;40;20088;-80
2021/06/23 01:32:26;;;;;;;24.85;6.18;;;;;;;23.95;62.19;94605.19;2974385;39;20084;-79
2021/06/23 01:34:28;;;;;;;18.65;6.03;;;;;;;23.97;62.51;94605.75;2976840;39;20121;-81
2021/06/23 01:36:30;;;;;;;20.63;6.43;;;;;;;23.99;62.28;94603.66;2973312;39;20160;-81
2021/06/23 01:38:33;;;;;;;21.70;6.07;;;;;;;24.00;62.43;94602.59;2974772;39;20335;-81
2021/06/23 01:40:34;;;;;;;17.60;6.00;;;;;;;24.00;62.59;94605.25;2972875;39;20097;-81
2021/06/23 01:42:36;;;;;;;20.30;6.22;;;;;;;23.75;63.19;94616.38;2976480;39;20064;-82
2021/06/23 01:44:38;;;;;;;22.50;6.85;;;;;;;23.46;64.17;94611.06;2975401;39;20348;-81
2021/06/23 01:46:39;;;;;;;22.52;7.38;;;;;;;23.30;65.04;94612.69;2972130;40;20060;-81
2021/06/23 01:48:42;;;;;;;17.40;6.40;;;;;;;23.11;65.74;94624.63;2973680;39;20063;-81
2021/06/23 01:50:56;;;;;;;20.90;6.95;;;;;;;23.03;66.24;94617.78;2976711;40;20083;-80
2021/06/23 01:52:57;;;;;;;23.15;6.60;;;;;;;22.93;66.99;94625.59;2969289;39;20088;-82
2021/06/23 01:54:59;;;;;;;17.75;6.03;;;;;;;22.96;67.64;94624.31;2971530;39;20355;-83
2021/06/23 01:57:01;;;;;;;15.75;6.63;;;;;;;23.05;67.11;94621.03;2975378;39;20067;-82
2021/06/23 01:59:02;;;;;;;13.82;6.32;;;;;;;23.15;66.59;94624.97;2970303;39;20158;-82
2021/06/23 02:01:41;;;;;;;23.80;6.30;;;;;;;23.24;66.59;94629.66;2966315;39;20061;-80
2021/06/23 02:03:59;;;;;;;16.73;5.82;;;;;;;23.34;66.01;94631.72;2975580;39;20081;-81
2021/06/23 02:06:04;;;;;;;18.80;7.40;;;;;;;23.39;65.74;94634.47;2970359;39;20055;-81
2021/06/23 02:08:35;;;;;;;19.48;7.40;;;;;;;23.41;66.09;94628.91;2975817;40;20343;-81
2021/06/23 02:10:42;;;;;;;20.45;6.63;;;;;;;23.45;65.45;94630.03;2969909;40;20096;-82
2021/06/23 02:12:53;;;;;;;19.40;6.53;;;;;;;23.46;65.42;94632.47;2972881;39;20048;-82
2021/06/23 02:15:02;;;;;;;22.23;6.88;;;;;;;23.46;65.61;94637.00;2973503;39;20049;-83
2021/06/23 02:17:07;;;;;;;15.25;5.45;;;;;;;23.43;65.23;94640.16;2967597;39;20078;-81
2021/06/23 02:19:09;;;;;;;14.23;6.28;;;;;;;23.40;65.34;94641.44;2972376;39;20395;-81
2021/06/23 02:21:11;;;;;;;24.17;5.90;;;;;;;23.40;65.18;94637.97;2970608;39;20429;-81
2021/06/23 02:23:13;;;;;;;17.23;6.65;;;;;;;23.44;65.22;94642.56;2968865;39;20053;-82
2021/06/23 02:25:14;;;;;;;26.23;5.90;;;;;;;23.45;65.11;94646.09;2975571;39;20545;-82
2021/06/23 02:27:16;;;;;;;20.55;6.15;;;;;;;23.47;65.28;94646.66;2976306;39;20056;-80
2021/06/23 02:29:18;;;;;;;19.52;5.70;;;;;;;23.48;65.13;94642.91;2975913;39;20144;-80
2021/06/23 02:31:20;;;;;;;20.58;6.47;;;;;;;23.49;64.97;94642.69;2975114;39;20086;-80
2021/06/23 02:33:22;;;;;;;19.13;6.15;;;;;;;23.50;64.79;94654.19;2964464;40;20422;-82
2021/06/23 02:35:26;;;;;;;21.33;6.68;;;;;;;23.50;64.43;94648.84;2974640;39;20063;-71
2021/06/23 02:37:28;;;;;;;20.73;5.70;;;;;;;23.51;64.32;94655.78;2964512;40;20479;-73
2021/06/23 02:39:30;;;;;;;22.25;6.15;;;;;;;23.49;64.44;94650.72;2969655;40;20055;-72
2021/06/23 02:41:33;;;;;;;19.90;6.20;;;;;;;23.51;64.37;94650.44;2970663;40;20149;-72
2021/06/23 02:43:37;;;;;;;19.25;5.72;;;;;;;23.52;64.12;94650.22;2974677;39;20055;-72
2021/06/23 02:45:38;;;;;;;15.02;5.18;;;;;;;23.52;64.18;94655.56;2973384;39;20576;-72
2021/06/23 02:47:40;;;;;;;17.52;5.50;;;;;;;23.54;64.47;94659.88;2967381;39;20052;-72
2021/06/23 02:49:42;;;;;;;24.98;6.90;;;;;;;23.47;64.22;94652.00;2971575;40;20132;-71
2021/06/23 02:51:44;;;;;;;16.08;5.78;;;;;;;23.40;64.38;94664.69;2973377;39;20589;-73
2021/06/23 02:53:48;;;;;;;17.27;5.30;;;;;;;23.38;64.33;94656.09;2968894;40;20188;-71
2021/06/23 02:55:50;;;;;;;;;;;;;;;23.31;64.89;94661.59;2970717;39;20048;-72
2021/06/23 02:57:52;;;;;;;18.80;6.25;;;;;;;23.11;65.67;94667.38;2982041;39;19982;-72
2021/06/23 02:59:54;;;;;;;21.73;6.10;;;;;;;22.98;66.20;94676.44;2967666;39;20176;-71
2021/06/23 03:01:56;;;;;;;23.23;6.13;;;;;;;22.92;66.74;94676.59;2970547;40;20097;-71
2021/06/23 03:03:58;;;;;;;16.73;5.95;;;;;;;22.90;66.70;94677.63;2973898;39;20056;-73
2021/06/23 03:06:02;;;;;;;19.33;6.22;;;;;;;22.96;66.36;94683.06;2975447;39;20375;-72
2021/06/23 03:08:05;;;;;;;17.15;5.70;;;;;;;23.02;66.32;94680.28;2973975;39;20768;-74
2021/06/23 03:10:09;;;;;;;16.35;6.78;;;;;;;23.05;65.85;94681.69;2972306;39;20056;-72
2021/06/23 03:12:12;;;;;;;17.55;6.78;;;;;;;23.08;65.69;94687.38;2970129;39;20063;-71
2021/06/23 03:14:14;;;;;;;16.48;5.70;;;;;;;23.16;65.47;94686.16;2968140;39;20652;-72
2021/06/23 03:16:16;;;;;;;20.38;6.32;;;;;;;23.19;65.40;94690.22;2972783;39;20044;-70
2021/06/23 03:18:18;;;;;;;18.92;6.63;;;;;;;23.21;65.56;94693.47;2965490;39;20313;-73
2021/06/23 03:20:20;;;;;;;23.13;6.55;;;;;;;23.22;65.66;94695.09;2967904;40;20064;-72
2021/06/23 03:22:22;;;;;;;22.23;6.38;;;;;;;23.27;65.37;94696.03;2970311;39;20048;-72
2021/06/23 03:24:24;;;;;;;20.80;5.97;;;;;;;23.31;65.37;94694.47;2973891;39;20445;-72
2021/06/23 03:26:28;;;;;;;24.25;6.82;;;;;;;23.35;64.86;94702.03;2973691;39;20060;-82
2021/06/23 03:28:30;;;;;;;19.75;6.38;;;;;;;23.38;64.75;94701.53;2974822;39;20074;-81
2021/06/23 03:30:32;;;;;;;26.23;6.30;;;;;;;23.41;64.37;94709.09;2973189;39;20089;-82
2021/06/23 03:32:34;;;;;;;16.60;6.07;;;;;;;23.45;64.58;94700.34;2968440;39;20125;-82
2021/06/23 03:34:37;;;;;;;19.80;7.28;;;;;;;23.46;64.37;94711.84;2973857;40;20065;-81
2021/06/23 03:36:39;;;;;;;24.35;6.95;;;;;;;23.44;65.04;94713.94;2969683;39;20055;-82
2021/06/23 03:38:40;;;;;;;27.05;8.05;;;;;;;23.39;65.00;94717.34;2975514;39;20102;-81
2021/06/23 03:40:42;;;;;;;28.95;7.38;;;;;;;23.09;65.92;94725.56;2974406;39;20445;-82
2021/06/23 03:42:44;;;;;;;24.42;8.23;;;;;;;22.93;66.38;94721.75;2974554;39;20152;-83
2021/06/23 03:44:46;;;;;;;23.10;7.60;;;;;;;22.82;67.10;94718.06;2968393;39;20095;-81
2021/06/23 03:46:48;;;;;;;20.38;7.05;;;;;;;22.81;67.40;94723.63;2973346;39;20054;-80
2021/06/23 03:48:50;;;;;;;16.05;7.43;;;;;;;22.81;67.16;94719.09;2976021;39;20067;-83
2021/06/23 03:50:52;;;;;;;20.88;7.05;;;;;;;22.92;67.11;94725.47;2975676;39;20456;-82
2021/06/23 03:52:54;;;;;;;21.20;6.93;;;;;;;23.03;66.45;94729.19;2976318;39;20056;-83
2021/06/23 03:54:56;;;;;;;21.38;7.72;;;;;;;23.12;66.41;94724.28;2976037;40;20078;-82
2021/06/23 03:56:57;;;;;;;18.80;7.13;;;;;;;23.22;65.92;94727.97;2974663;39;20136;-82
2021/06/23 03:58:59;;;;;;;25.30;7.35;;;;;;;23.33;65.68;94731.66;2973114;39;20060;-82
2021/06/23 04:01:01;;;;;;;22.08;7.75;;;;;;;23.41;65.32;94727.81;2969314;39;20079;-82
2021/06/23 04:03:04;;;;;;;23.42;6.65;;;;;;;23.48;64.81;94733.81;2971575;39;20955;-83
2021/06/23 04:05:07;;;;;;;21.92;7.75;;;;;;;23.48;64.96;94731.16;2973674;39;20423;-82
2021/06/23 04:07:09;;;;;;;23.38;8.02;;;;;;;23.57;64.67;94739.59;2969166;39;20068;-83
2021/06/23 04:09:10;;;;;;;21.88;7.60;;;;;;;23.63;64.64;94736.78;2975194;39;20054;-83
2021/06/23 04:11:12;;;;;;;30.40;7.70;;;;;;;23.56;65.16;94740.66;2975859;39;20087;-82
2021/06/23 04:13:14;;;;;;;23.85;9.35;;;;;;;23.48;65.03;94741.84;2971216;39;20091;-82
2021/06/23 04:15:16;;;;;;;20.48;8.15;;;;;;;23.26;65.94;94736.34;2974767;39;20147;-81
2021/06/23 04:17:18;;;;;;;24.33;8.80;;;;;;;23.11;66.61;94734.16;2970651;39;20048;-83
2021/06/23 04:19:20;;;;;;;22.88;7.38;;;;;;;23.19;66.15;94736.47;2966492;40;20058;-82
2021/06/23 04:21:21;;;;;;;27.35;7.70;;;;;;;23.25;66.21;94737.38;2974480;40;20060;-82
2021/06/23 04:23:23;;;;;;;27.08;8.55;;;;;;;23.28;66.21;94745.75;2975429;39;20121;-82
2021/06/23 04:25:25;;;;;;;29.05;9.10;;;;;;;23.40;65.91;94753.72;2975970;39;20183;-82
2021/06/23 04:27:26;;;;;;;17.00;7.32;;;;;;;23.51;65.77;94754.72;2971870;39;20474;-84
2021/06/23 04:29:28;;;;;;;29.77;9.43;;;;;;;23.68;65.11;94755.59;2973613;39;20067;-84
2021/06/23 04:31:31;;;;;;;30.83;9.25;;;;;;;23.80;64.62;94758.25;2975236;39;20113;-83
2021/06/23 04:33:33;;;;;;;24.42;7.53;;;;;;;23.92;63.94;94755.53;2972918;39;20052;-82
2021/06/23 04:35:35;;;;;;;22.05;8.07;;;;;;;24.03;63.46;94757.31;2975538;39;20368;-83
2021/06/23 04:37:39;;;;;;;21.67;7.20;;;;;;;24.10;62.98;94752.59;2976571;40;20052;-83
2021/06/23 04:39:40;;;;;;;19.50;6.57;;;;;;;24.19;62.55;94757.56;2969920;40;20319;-83
2021/06/23 04:41:42;;;;;;;23.95;7.13;;;;;;;24.28;62.35;94750.75;2975496;40;20090;-82
2021/06/23 04:43:44;;;;;;;16.13;7.18;;;;;;;24.37;62.06;94757.34;2978541;39;20066;-81
2021/06/23 04:45:46;;;;;;;29.10;8.00;;;;;;;24.45;61.91;94756.91;2974728;39;20051;-84
2021/06/23 04:47:48;;;;;;;21.05;7.63;;;;;;;24.56;61.43;94755.22;2968561;40;20541;-84
2021/06/23 04:49:50;;;;;;;23.67;7.70;;;;;;;24.63;61.18;94757.72;2971995;39;20080;-82
2021/06/23 04:51:52;;;;;;;26.40;7.90;;;;;;;24.69;61.05;94759.44;2968154;40;20413;-81
2021/06/23 04:53:53;;;;;;;25.38;8.02;;;;;;;24.72;60.81;94754.41;2976452;40;20095;-83
2021/06/23 04:55:55;;;;;;;23.88;8.77;;;;;;;24.77;60.97;94761.69;2971245;39;20058;-84
2021/06/23 04:57:57;;;;;;;21.85;8.23;;;;;;;24.84;60.53;94764.19;2976195;39;20132;-83
2021/06/23 04:59:59;;;;;;;20.20;7.78;;;;;;;24.89;60.38;94758.94;2972106;39;20379;-81
2021/06/23 05:02:00;;;;;;;22.25;7.95;;;;;;;24.74;60.46;94762.22;2974715;39;20080;-84
2021/06/23 05:04:02;;;;;;;26.10;9.55;;;;;;;24.60;61.10;94774.31;2976680;40;20055;-82
2021/06/23 05:06:04;;;;;;;23.48;7.95;;;;;;;24.59;61.13;94770.03;2976954;39;20087;-82
2021/06/23 05:08:06;;;;;;;26.00;8.70;;;;;;;24.63;61.24;94768.44;2977570;39;20052;-83
2021/06/23 05:10:09;;;;;;;22.25;7.68;;;;;;;24.56;61.75;94770.50;2976000;39;20513;-85
2021/06/23 05:12:10;;;;;;;23.95;8.32;;;;;;;24.40;62.24;94778.25;2973371;39;20126;-83
2021/06/23 05:14:12;;;;;;;24.70;8.63;;;;;;;24.35;62.36;94770.16;2973568;39;20084;-85
2021/06/23 05:16:16;;;;;;;26.90;8.18;;;;;;;24.30;63.02;94764.69;2977455;40;20088;-82
2021/06/23 05:18:17;;;;;;;;;;;;;;;24.38;62.70;94772.34;2977417;39;20079;-83
2021/06/23 05:20:20;;;;;;;29.45;8.52;;;;;;;24.45;62.68;94767.63;2976567;39;20007;-84
2021/06/23 05:22:23;;;;;;;24.75;8.68;;;;;;;24.48;62.58;94775.22;2977420;39;20507;-85
2021/06/23 05:24:25;;;;;;;23.10;8.63;;;;;;;24.51;62.22;94774.72;2976542;39;20063;-82
2021/06/23 05:26:27;;;;;;;26.73;8.75;;;;;;;24.64;61.96;94776.25;2976912;39;20351;-81
2021/06/23 05:28:28;;;;;;;21.05;7.45;;;;;;;24.66;61.60;94771.47;2974328;39;20445;-82
2021/06/23 05:30:30;;;;;;;22.48;8.00;;;;;;;24.69;61.66;94775.50;2972249;39;20242;-81
2021/06/23 05:32:32;;;;;;;21.60;7.40;;;;;;;24.70;61.43;94779.81;2972428;39;20044;-82
2021/06/23 05:34:36;;;;;;;25.13;8.15;;;;;;;24.77;61.23;94771.63;2982202;39;20049;-84
2021/06/23 05:36:38;;;;;;;33.17;8.45;;;;;;;24.73;60.92;94769.41;2976866;39;20104;-81
2021/06/23 05:38:39;;;;;;;39.28;8.60;;;;;;;24.61;60.95;94781.28;2975349;39;20274;-81
2021/06/23 05:40:41;;;;;;;28.08;8.60;;;;;;;24.67;60.83;94777.63;2971911;39;20055;-83
2021/06/23 05:42:43;;;;;;;25.95;8.40;;;;;;;24.59;61.04;94775.38;2976918;39;20099;-83
2021/06/23 05:44:45;;;;;;;24.38;8.02;;;;;;;24.53;61.20;94777.97;2976449;39;20312;-84
2021/06/23 05:46:47;;;;;;;27.92;8.38;;;;;;;24.73;61.14;94772.09;2970360;40;20056;-83
2021/06/23 05:48:48;;;;;;;26.48;7.85;;;;;;;24.90;60.93;94773.94;2975826;40;20058;-82
2021/06/23 05:50:50;;;;;;;27.25;8.07;;;;;;;24.90;60.55;94777.41;2976394;39;20473;-82
2021/06/23 05:52:52;;;;;;;28.33;8.52;;;;;;;25.01;60.04;94777.56;2976690;39;20052;-83
2021/06/23 05:54:54;;;;;;;25.02;8.60;;;;;;;25.16;59.86;94775.09;2977564;39;20092;-82
2021/06/23 05:56:55;;;;;;;35.53;8.70;;;;;;;25.32;59.38;94778.81;2971259;39;20153;-82
2021/06/23 05:58:57;;;;;;;30.65;8.63;;;;;;;25.48;58.78;94783.28;2975431;39;20060;-81
2021/06/23 06:01:01;;;;;;;26.00;9.05;;;;;;;25.64;58.35;94775.41;2975215;39;20079;-84
2021/06/23 06:03:04;;;;;;;28.95;7.68;;;;;;;25.73;57.98;94785.47;2971327;39;20091;-84
2021/06/23 06:05:06;;;;;;;28.27;8.75;;;;;;;25.70;57.10;94785.16;2972603;39;20080;-81
2021/06/23 06:07:08;;;;;;;28.00;7.82;;;;;;;25.77;57.51;94780.41;2972367;39;20069;-80
2021/06/23 06:09:16;;;;;;;23.67;9.68;;;;;;;25.79;57.26;94783.66;2970613;39;20298;-82
2021/06/23 06:11:17;;;;;;;22.83;7.72;;;;;;;25.91;57.03;94783.53;2969469;39;20060;-82
2021/06/23 06:13:19;;;;;;;31.80;8.40;;;;;;;26.04;56.64;94785.00;2974127;40;20156;-72
2021/06/23 06:15:21;;;;;;;24.67;9.38;;;;;;;25.82;56.91;94782.34;2970374;39;20074;-72
2021/06/23 06:17:23;;;;;;;24.38;7.85;;;;;;;25.70;57.52;94777.09;2968786;40;20060;-72
2021/06/23 06:19:25;;;;;;;32.05;8.73;;;;;;;25.80;57.38;94779.91;2967765;39;20060;-73
2021/06/23 06:21:26;;;;;;;28.48;8.40;;;;;;;25.98;57.02;94775.28;2968731;39;20152;-72
2021/06/23 06:23:29;;;;;;;25.10;7.28;;;;;;;26.13;56.77;94781.59;2968539;40;20060;-73
2021/06/23 06:25:31;;;;;;;25.90;8.33;;;;;;;26.29;56.13;94784.44;2971608;39;20133;-73
2021/06/23 06:27:33;;;;;;;29.88;7.80;;;;;;;26.19;56.30;94789.72;2971047;39;20310;-73
2021/06/23 06:29:34;;;;;;;27.15;8.35;;;;;;;26.17;57.03;94784.59;2962243;40;20526;-73
2021/06/23 06:31:36;;;;;;;23.25;7.97;;;;;;;26.14;56.91;94783.22;2968238;39;20074;-73
2021/06/23 06:33:38;;;;;;;31.23;7.55;;;;;;;25.90;57.31;94789.97;2970024;40;20056;-73
2021/06/23 06:35:41;;;;;;;23.35;7.68;;;;;;;25.88;57.39;94786.69;2972673;39;20060;-72
2021/06/23 06:37:43;;;;;;;28.33;7.87;;;;;;;25.92;57.28;94795.88;2971469;39;20047;-75
2021/06/23 06:39:44;;;;;;;26.90;8.13;;;;;;;26.02;57.35;94795.97;2974218;39;20214;-72
2021/06/23 06:41:46;;;;;;;30.45;9.18;;;;;;;26.03;56.83;94786.88;2974083;39;20144;-73
2021/06/23 06:43:48;;;;;;;30.67;8.05;;;;;;;26.06;56.76;94794.41;2975422;39;20121;-74
2021/06/23 06:45:51;;;;;;;26.80;7.53;;;;;;;26.24;56.86;94800.47;2968576;39;20052;-74
2021/06/23 06:47:53;;;;;;;20.73;7.22;;;;;;;26.49;56.57;94798.03;2968700;39;20404;-74
2021/06/23 06:49:55;;;;;;;28.23;8.02;;;;;;;26.63;55.91;94792.25;2970834;39;20163;-72
2021/06/23 06:51:58;;;;;;;27.35;8.23;;;;;;;26.57;55.01;94801.34;2969902;39;20145;-75
2021/06/23 06:54:01;;;;;;;26.80;7.50;;;;;;;26.67;55.02;94798.72;2974142;39;20155;-73
2021/06/23 06:56:03;;;;;;;25.63;7.53;;;;;;;26.55;55.04;94797.00;2974500;39;20059;-76
2021/06/23 06:58:04;;;;;;;28.23;7.55;;;;;;;26.75;54.64;94798.25;2975073;39;20561;-74
2021/06/23 07:00:06;;;;;;;24.83;7.97;;;;;;;26.96;54.39;94800.00;2974532;39;20059;-74
2021/06/23 07:02:08;;;;;;;28.23;8.43;;;;;;;26.87;53.90;94801.56;2972035;39;20047;-73
2021/06/23 07:04:11;;;;;;;29.17;8.52;;;;;;;26.93;54.23;94797.00;2969638;39;20048;-74
2021/06/23 07:06:13;;;;;;;23.77;8.27;;;;;;;27.05;54.10;94802.22;2971595;40;20103;-73
2021/06/23 07:08:14;;;;;;;24.63;8.63;;;;;;;27.22;53.59;94805.56;2967736;39;20059;-73
2021/06/23 07:10:16;;;;;;;22.65;7.28;;;;;;;27.35;53.11;94804.28;2975254;39;20052;-76
2021/06/23 07:12:18;;;;;;;25.65;7.60;;;;;;;27.47;53.77;94804.06;2974979;39;20124;-74
2021/06/23 07:14:21;;;;;;;22.42;8.18;;;;;;;27.57;53.24;94798.72;2974858;39;20056;-74
2021/06/23 07:16:22;;;;;;;26.88;8.20;;;;;;;27.59;53.41;94804.66;2972374;39;20561;-73
2021/06/23 07:18:25;;;;;;;21.35;7.35;;;;;;;27.72;53.12;94808.75;2974794;39;20056;-71
2021/06/23 07:20:26;;;;;;;25.52;7.60;;;;;;;27.78;52.26;94802.31;2974954;39;20143;-72
2021/06/23 07:22:29;;;;;;;27.53;6.80;;;;;;;27.89;52.60;94793.22;2974495;40;20112;-75
2021/06/23 07:24:31;;;;;;;21.17;8.15;;;;;;;27.94;51.89;94797.78;2965891;40;20677;-74
2021/06/23 07:26:32;;;;;;;29.05;7.45;;;;;;;27.91;52.51;94801.03;2965890;40;20064;-71
2021/06/23 07:28:47;;;;;;;29.02;6.82;;;;;;;28.01;52.35;94798.38;2974932;39;20056;-75
2021/06/23 07:30:49;;;;;;;24.63;7.38;;;;;;;28.16;52.33;94797.59;2971510;39;20274;-74
2021/06/23 07:32:57;;;;;;;30.67;7.95;;;;;;;28.28;51.53;94805.41;2966879;40;20048;-73
2021/06/23 07:37:20;;;;;;;27.52;7.55;;;;;;;28.31;51.08;94810.28;2968763;39;20227;-72
2021/06/23 07:39:22;;;;;;;28.60;7.23;;;;;;;28.28;51.43;94803.50;2967739;39;20068;-84
2021/06/23 07:41:23;;;;;;;22.25;8.30;;;;;;;28.30;51.82;94803.25;2970234;40;20312;-84
2021/06/23 07:43:25;;;;;;;27.40;7.90;;;;;;;28.12;51.92;94801.88;2974802;39;20068;-83
2021/06/23 07:45:27;;;;;;;24.63;7.72;;;;;;;28.21;50.95;94802.16;2976110;40;20397;-84
2021/06/23 07:47:49;;;;;;;28.77;7.88;;;;;;;28.16;52.16;94795.69;2969956;39;20239;-83
2021/06/23 07:49:51;;;;;;;27.08;7.40;;;;;;;28.26;50.52;94808.34;2974033;39;20139;-82
2021/06/23 07:56:23;;;;;;;30.33;7.35;;;;;;;28.71;49.83;94801.41;2972693;39;20060;-82
2021/06/23 08:10:14;;;;;;;29.58;8.10;;;;;;;29.38;48.32;94812.94;2972275;39;20060;-80
2021/06/23 08:12:18;;;;;;;26.15;6.80;;;;;;;29.48;47.56;94816.66;2971352;39;20510;-74
2021/06/23 08:14:20;;;;;;;27.45;7.65;;;;;;;29.53;47.56;94814.75;2966541;39;20122;-72
2021/06/23 08:16:22;;;;;;;30.67;7.25;;;;;;;29.52;47.74;94817.72;2972813;39;20148;-74
2021/06/23 08:18:23;;;;;;;30.50;8.40;;;;;;;29.57;47.85;94812.31;2969615;39;20051;-73
2021/06/23 08:20:26;;;;;;;36.85;7.93;;;;;;;29.65;47.58;94811.75;2974764;39;20173;-73
2021/06/23 08:22:28;;;;;;;28.58;7.45;;;;;;;29.75;47.10;94810.91;2970371;39;20045;-74
2021/06/23 08:24:29;;;;;;;27.80;8.20;;;;;;;29.87;46.60;94813.28;2969145;40;20096;-74
2021/06/23 08:26:31;;;;;;;26.15;6.57;;;;;;;30.00;46.25;94815.38;2973920;39;20340;-74
2021/06/23 08:28:33;;;;;;;26.70;7.30;;;;;;;30.09;44.97;94818.31;2969907;39;20369;-72
2021/06/23 08:30:35;;;;;;;32.75;7.15;;;;;;;30.07;42.52;94813.16;2971919;40;20143;-73
2021/06/23 08:32:40;;;;;;;28.52;6.38;;;;;;;29.97;41.97;94814.03;2974707;40;20202;-73
2021/06/23 08:34:42;;;;;;;27.33;6.28;;;;;;;29.78;41.80;94811.16;2975769;39;20107;-73
2021/06/23 08:36:43;;;;;;;26.77;7.18;;;;;;;29.77;42.16;94819.53;2970663;39;20270;-73
2021/06/23 08:38:45;;;;;;;24.85;6.25;;;;;;;29.95;40.09;94823.53;2970883;39;20438;-73
2021/06/23 08:40:47;;;;;;;25.95;5.53;;;;;;;30.07;39.67;94817.78;2974604;39;20064;-74
2021/06/23 08:42:49;;;;;;;25.45;7.05;;;;;;;30.22;39.44;94817.69;2974530;39;20149;-73
2021/06/23 08:44:50;;;;;;;29.27;6.63;;;;;;;30.36;39.88;94815.19;2969401;39;20132;-73
2021/06/23 08:46:52;;;;;;;18.08;6.25;;;;;;;30.32;40.30;94816.84;2968750;40;20060;-73
2021/06/23 08:49:01;;;;;;;18.42;6.00;;;;;;;30.14;41.46;94816.38;2973038;40;20075;-72
2021/06/23 08:51:05;;;;;;;27.25;6.53;;;;;;;30.26;41.65;94817.94;2968475;39;20211;-73
2021/06/23 08:53:08;;;;;;;29.60;6.57;;;;;;;30.07;41.11;94818.56;2970925;40;20375;-73
2021/06/23 08:55:10;;;;;;;19.65;6.90;;;;;;;29.89;41.83;94816.53;2970587;39;20059;-72
2021/06/23 08:57:12;;;;;;;20.88;5.88;;;;;;;30.13;42.01;94816.66;2975005;40;20510;-74
2021/06/23 08:59:13;;;;;;;25.35;6.65;;;;;;;30.29;42.07;94825.53;2969649;39;20104;-72
2021/06/23 09:01:15;;;;;;;31.98;7.63;;;;;;;30.44;40.88;94817.31;2969617;39;20051;-72
2021/06/23 09:03:17;;;;;;;27.98;6.72;;;;;;;30.14;38.62;94818.28;2975591;40;20059;-73
2021/06/23 09:05:19;;;;;;;21.75;5.32;;;;;;;30.28;39.04;94823.88;2972252;39;20056;-73
2021/06/23 09:07:35;;;;;;;26.85;6.07;;;;;;;30.28;39.84;94823.88;2969614;39;20045;-73
2021/06/23 09:09:37;;;;;;;20.13;5.95;;;;;;;30.54;39.69;94822.63;2969056;39;20156;-74
2021/06/23 09:11:42;;;;;;;19.00;5.30;;;;;;;30.55;38.68;94826.94;2975484;39;20140;-74
2021/06/23 09:13:44;;;;;;;20.92;5.32;;;;;;;30.70;38.18;94822.53;2971204;39;20145;-72
2021/06/23 09:15:50;;;;;;;29.92;6.18;;;;;;;30.60;38.26;94826.09;2965936;39;20502;-73
2021/06/23 09:18:09;;;;;;;17.25;4.47;;;;;;;30.60;38.21;94826.09;2972141;39;20092;-74
2021/06/23 09:20:11;;;;;;;28.48;5.30;;;;;;;30.52;37.97;94827.50;2970528;40;20476;-74
2021/06/23 09:22:36;;;;;;;22.15;6.57;;;;;;;30.56;38.35;94831.25;2974879;40;20072;-73
2021/06/23 09:24:41;;;;;;;22.58;4.88;;;;;;;30.68;38.35;94824.69;2970860;39;20382;-73
2021/06/23 09:26:43;;;;;;;32.88;6.07;;;;;;;30.56;38.03;94825.03;2972244;39;20052;-72
2021/06/23 09:29:02;;;;;;;20.07;5.40;;;;;;;30.71;38.73;94818.72;2969641;39;20087;-72
2021/06/23 09:31:06;;;;;;;27.95;5.43;;;;;;;30.58;38.23;94820.16;2968588;40;20068;-74
2021/06/23 09:33:15;;;;;;;26.17;8.45;;;;;;;30.31;39.25;94824.16;2968720;39;20056;-74
2021/06/23 09:35:27;;;;;;;24.70;5.82;;;;;;;30.47;39.65;94815.94;2967886;40;20063;-76
2021/06/23 09:37:37;;;;;;;23.83;5.85;;;;;;;30.67;39.33;94823.06;2970780;39;20063;-74
2021/06/23 09:39:43;;;;;;;;;;;;;;;30.87;38.75;94814.84;2975154;39;20052;-72
2021/06/23 09:41:44;;;;;;;21.42;5.75;;;;;;;30.96;38.84;94820.44;2974651;39;19932;-72
2021/06/23 09:43:52;;;;;;;26.10;5.43;;;;;;;31.19;38.43;94818.84;2970666;39;20137;-73
2021/06/23 09:45:54;;;;;;;25.00;5.75;;;;;;;31.41;38.25;94811.03;2972650;39;20086;-73
2021/06/23 09:48:07;;;;;;;23.85;5.18;;;;;;;31.43;37.95;94818.91;2968790;39;20417;-74
2021/06/23 09:50:11;;;;;;;18.80;5.63;;;;;;;31.33;37.78;94822.50;2969667;40;20318;-74
2021/06/23 09:52:14;;;;;;;22.02;5.10;;;;;;;30.99;38.30;94817.94;2973706;39;20137;-73